JBU3212 KMCO-KSYR
Flight info
| Callsign | JBU3212 |
|---|---|
| Flight time | 2h 12m |
| Altitude | 35000 |
| Route | FATHE4 VIYAP Q69 RICCS JST NABOR |
| Aircraft | A321/M-SDE3FGHIRWY/LB1 |
Departure
| Time | 2026-05-07 01:07 |
|---|---|
| Airport | Orlando International Airport (KMCO) |
Arrival
| Time | 2026-05-07 03:20 |
|---|---|
| Airport | Syracuse Hancock International Airport (KSYR) |
| Time | Latitude | Longitude | Altitude | Speed | Heading |
|---|---|---|---|---|---|
| 2026-05-07 00:13 | 28.43346 | -81.31615 | 102 ft | 0 kts | 51° |
| 2026-05-07 00:59 | 28.43344 | -81.31618 | 102 ft | 3 kts | 51° |
| 2026-05-07 00:59 | 28.43333 | -81.31634 | 86 ft | 3 kts | 47° |
| 2026-05-07 00:59 | 28.43317 | -81.31648 | 101 ft | 3 kts | 17° |
| 2026-05-07 01:00 | 28.43299 | -81.31651 | 101 ft | 3 kts | 347° |
| 2026-05-07 01:00 | 28.43281 | -81.31643 | 102 ft | 3 kts | 317° |
| 2026-05-07 01:00 | 28.43271 | -81.31628 | 101 ft | 0 kts | 293° |
| 2026-05-07 01:02 | 28.43272 | -81.31631 | 101 ft | 2 kts | 293° |
| 2026-05-07 01:02 | 28.43279 | -81.31665 | 102 ft | 9 kts | 281° |
| 2026-05-07 01:03 | 28.43265 | -81.31755 | 102 ft | 13 kts | 244° |
| 2026-05-07 01:03 | 28.43292 | -81.31837 | 101 ft | 16 kts | 344° |
| 2026-05-07 01:03 | 28.43420 | -81.31842 | 102 ft | 20 kts | 360° |
| 2026-05-07 01:03 | 28.43552 | -81.31845 | 105 ft | 18 kts | 358° |
| 2026-05-07 01:04 | 28.43679 | -81.31845 | 105 ft | 19 kts | 358° |
| 2026-05-07 01:04 | 28.43811 | -81.31845 | 107 ft | 19 kts | 360° |
| 2026-05-07 01:04 | 28.43944 | -81.31860 | 109 ft | 21 kts | 342° |
| 2026-05-07 01:04 | 28.44091 | -81.31900 | 109 ft | 22 kts | 356° |
| 2026-05-07 01:05 | 28.44250 | -81.31902 | 107 ft | 23 kts | 0° |
| 2026-05-07 01:05 | 28.44410 | -81.31904 | 107 ft | 23 kts | 360° |
| 2026-05-07 01:05 | 28.44577 | -81.31903 | 102 ft | 25 kts | 0° |
| 2026-05-07 01:05 | 28.44715 | -81.31954 | 101 ft | 19 kts | 285° |
| 2026-05-07 01:06 | 28.44714 | -81.32105 | 102 ft | 19 kts | 270° |
| 2026-05-07 01:06 | 28.44668 | -81.32215 | 104 ft | 16 kts | 195° |
| 2026-05-07 01:06 | 28.44585 | -81.32228 | 104 ft | 0 kts | 180° |
| 2026-05-07 01:06 | 28.44577 | -81.32228 | 104 ft | 8 kts | 180° |
| 2026-05-07 01:07 | 28.44278 | -81.32223 | 109 ft | 77 kts | 179° |
| 2026-05-07 01:07 | 28.43533 | -81.32218 | 104 ft | 136 kts | 179° |
| 2026-05-07 01:07 | 28.42429 | -81.32214 | 125 ft | 178 kts | 182° |
| 2026-05-07 01:07 | 28.41220 | -81.32253 | 803 ft | 170 kts | 179° |
| 2026-05-07 01:08 | 28.40007 | -81.32317 | 1343 ft | 177 kts | 181° |
| 2026-05-07 01:08 | 28.38781 | -81.32395 | 1820 ft | 178 kts | 182° |
| 2026-05-07 01:08 | 28.37560 | -81.32700 | 2206 ft | 183 kts | 202° |
| 2026-05-07 01:08 | 28.36471 | -81.33481 | 2621 ft | 188 kts | 217° |
| 2026-05-07 01:09 | 28.35442 | -81.34426 | 3061 ft | 192 kts | 221° |
| 2026-05-07 01:09 | 28.34652 | -81.35652 | 3450 ft | 198 kts | 249° |
| 2026-05-07 01:09 | 28.34507 | -81.37249 | 3684 ft | 216 kts | 277° |
| 2026-05-07 01:09 | 28.35105 | -81.38897 | 3762 ft | 242 kts | 304° |
| 2026-05-07 01:10 | 28.36430 | -81.40260 | 3774 ft | 276 kts | 329° |
| 2026-05-07 01:10 | 28.38300 | -81.40933 | 4206 ft | 286 kts | 356° |
| 2026-05-07 01:10 | 28.40258 | -81.40702 | 5052 ft | 283 kts | 11° |
| 2026-05-07 01:10 | 28.42210 | -81.40206 | 5499 ft | 297 kts | 12° |
| 2026-05-07 01:11 | 28.44303 | -81.39650 | 5655 ft | 320 kts | 12° |
| 2026-05-07 01:11 | 28.46524 | -81.39048 | 5957 ft | 335 kts | 12° |
| 2026-05-07 01:11 | 28.48798 | -81.38425 | 6559 ft | 338 kts | 13° |
| 2026-05-07 01:11 | 28.51098 | -81.37792 | 7145 ft | 340 kts | 13° |
| 2026-05-07 01:12 | 28.53407 | -81.37160 | 7743 ft | 343 kts | 13° |
| 2026-05-07 01:12 | 28.55737 | -81.36528 | 8318 ft | 346 kts | 13° |
| 2026-05-07 01:12 | 28.58060 | -81.35899 | 8888 ft | 349 kts | 13° |
| 2026-05-07 01:12 | 28.60431 | -81.35259 | 9446 ft | 352 kts | 13° |
| 2026-05-07 01:13 | 28.62829 | -81.34609 | 9985 ft | 355 kts | 13° |
| 2026-05-07 01:13 | 28.65243 | -81.33954 | 10477 ft | 358 kts | 13° |
| 2026-05-07 01:13 | 28.67673 | -81.33297 | 11001 ft | 359 kts | 12° |
| 2026-05-07 01:13 | 28.70110 | -81.32638 | 11527 ft | 361 kts | 12° |
| 2026-05-07 01:14 | 28.72561 | -81.31973 | 12047 ft | 363 kts | 12° |
| 2026-05-07 01:14 | 28.75025 | -81.31304 | 12557 ft | 365 kts | 12° |
| 2026-05-07 01:14 | 28.77499 | -81.30631 | 13083 ft | 367 kts | 12° |
| 2026-05-07 01:14 | 28.79990 | -81.29952 | 13602 ft | 369 kts | 12° |
| 2026-05-07 01:15 | 28.82488 | -81.29281 | 14098 ft | 370 kts | 9° |
| 2026-05-07 01:15 | 28.85051 | -81.28964 | 14526 ft | 371 kts | 358° |
| 2026-05-07 01:15 | 28.87635 | -81.29130 | 14945 ft | 373 kts | 354° |
| 2026-05-07 01:15 | 28.90232 | -81.29355 | 15376 ft | 376 kts | 353° |
| 2026-05-07 01:16 | 28.92849 | -81.29581 | 15811 ft | 379 kts | 353° |
| 2026-05-07 01:16 | 28.95482 | -81.29806 | 16242 ft | 381 kts | 353° |
| 2026-05-07 01:16 | 28.98143 | -81.30034 | 16683 ft | 384 kts | 353° |
| 2026-05-07 01:16 | 29.00816 | -81.30277 | 17112 ft | 387 kts | 352° |
| 2026-05-07 01:17 | 29.03501 | -81.30560 | 17540 ft | 389 kts | 351° |
| 2026-05-07 01:17 | 29.06211 | -81.30869 | 17977 ft | 392 kts | 351° |
| 2026-05-07 01:17 | 29.08934 | -81.31189 | 18404 ft | 395 kts | 351° |
| 2026-05-07 01:17 | 29.11671 | -81.31500 | 18790 ft | 397 kts | 351° |
| 2026-05-07 01:18 | 29.14400 | -81.31731 | 19192 ft | 399 kts | 353° |
| 2026-05-07 01:18 | 29.17178 | -81.31899 | 19607 ft | 401 kts | 353° |
| 2026-05-07 01:18 | 29.19973 | -81.32034 | 20030 ft | 403 kts | 353° |
| 2026-05-07 01:18 | 29.22784 | -81.32163 | 20446 ft | 404 kts | 353° |
| 2026-05-07 01:19 | 29.25595 | -81.32300 | 20856 ft | 406 kts | 352° |
| 2026-05-07 01:19 | 29.28425 | -81.32455 | 21250 ft | 407 kts | 352° |
| 2026-05-07 01:19 | 29.31258 | -81.32622 | 21637 ft | 408 kts | 352° |
| 2026-05-07 01:19 | 29.34101 | -81.32796 | 22016 ft | 410 kts | 351° |
| 2026-05-07 01:20 | 29.36952 | -81.32976 | 22377 ft | 411 kts | 351° |
| 2026-05-07 01:20 | 29.39814 | -81.33156 | 22733 ft | 413 kts | 351° |
| 2026-05-07 01:20 | 29.42685 | -81.33333 | 23098 ft | 414 kts | 351° |
| 2026-05-07 01:20 | 29.45566 | -81.33509 | 23462 ft | 416 kts | 351° |
| 2026-05-07 01:21 | 29.48460 | -81.33684 | 23777 ft | 418 kts | 351° |
| 2026-05-07 01:21 | 29.51375 | -81.33859 | 24064 ft | 419 kts | 351° |
| 2026-05-07 01:21 | 29.54297 | -81.34035 | 24351 ft | 421 kts | 351° |
| 2026-05-07 01:21 | 29.57227 | -81.34209 | 24639 ft | 423 kts | 350° |
| 2026-05-07 01:22 | 29.60169 | -81.34385 | 24920 ft | 424 kts | 350° |
| 2026-05-07 01:22 | 29.63123 | -81.34563 | 25207 ft | 426 kts | 350° |
| 2026-05-07 01:22 | 29.66093 | -81.34743 | 25492 ft | 428 kts | 350° |
| 2026-05-07 01:22 | 29.69071 | -81.34919 | 25778 ft | 429 kts | 350° |
| 2026-05-07 01:23 | 29.72060 | -81.35093 | 26063 ft | 431 kts | 350° |
| 2026-05-07 01:23 | 29.75061 | -81.35264 | 26347 ft | 433 kts | 350° |
| 2026-05-07 01:23 | 29.78074 | -81.35433 | 26623 ft | 435 kts | 350° |
| 2026-05-07 01:23 | 29.81105 | -81.35603 | 26899 ft | 436 kts | 349° |
| 2026-05-07 01:24 | 29.84146 | -81.35773 | 27172 ft | 438 kts | 349° |
| 2026-05-07 01:24 | 29.87193 | -81.35944 | 27449 ft | 440 kts | 349° |
| 2026-05-07 01:24 | 29.90264 | -81.36119 | 27713 ft | 441 kts | 349° |
| 2026-05-07 01:24 | 29.93327 | -81.36296 | 27973 ft | 443 kts | 349° |
| 2026-05-07 01:25 | 29.96407 | -81.36475 | 28236 ft | 444 kts | 349° |
| 2026-05-07 01:25 | 29.99495 | -81.36654 | 28490 ft | 446 kts | 349° |
| 2026-05-07 01:25 | 30.02599 | -81.36831 | 28757 ft | 448 kts | 349° |
| 2026-05-07 01:25 | 30.05678 | -81.37007 | 29018 ft | 449 kts | 349° |
| 2026-05-07 01:26 | 30.08847 | -81.37189 | 29287 ft | 451 kts | 349° |
| 2026-05-07 01:26 | 30.11944 | -81.37369 | 29539 ft | 452 kts | 349° |
| 2026-05-07 01:26 | 30.15083 | -81.37553 | 29855 ft | 452 kts | 349° |
| 2026-05-07 01:26 | 30.18220 | -81.37736 | 30215 ft | 451 kts | 349° |
| 2026-05-07 01:27 | 30.21350 | -81.37915 | 30529 ft | 450 kts | 349° |
| 2026-05-07 01:27 | 30.24474 | -81.38094 | 30830 ft | 449 kts | 349° |
| 2026-05-07 01:27 | 30.27592 | -81.38274 | 31110 ft | 449 kts | 349° |
| 2026-05-07 01:27 | 30.30714 | -81.38455 | 31391 ft | 448 kts | 349° |
| 2026-05-07 01:28 | 30.33827 | -81.38635 | 31658 ft | 448 kts | 349° |
| 2026-05-07 01:28 | 30.36946 | -81.38815 | 31940 ft | 448 kts | 350° |
| 2026-05-07 01:28 | 30.40056 | -81.38994 | 32214 ft | 447 kts | 350° |
| 2026-05-07 01:28 | 30.43157 | -81.39173 | 32483 ft | 447 kts | 350° |
| 2026-05-07 01:29 | 30.46263 | -81.39354 | 32742 ft | 447 kts | 350° |
| 2026-05-07 01:29 | 30.49377 | -81.39528 | 32998 ft | 447 kts | 350° |
| 2026-05-07 01:29 | 30.52475 | -81.39695 | 33266 ft | 447 kts | 351° |
| 2026-05-07 01:29 | 30.55581 | -81.39857 | 33515 ft | 447 kts | 351° |
| 2026-05-07 01:30 | 30.58691 | -81.40016 | 33763 ft | 446 kts | 351° |
| 2026-05-07 01:30 | 30.61791 | -81.40176 | 34017 ft | 446 kts | 351° |
| 2026-05-07 01:30 | 30.64892 | -81.40339 | 34238 ft | 446 kts | 351° |
| 2026-05-07 01:30 | 30.67984 | -81.40504 | 34444 ft | 445 kts | 351° |
| 2026-05-07 01:31 | 30.71082 | -81.40669 | 34665 ft | 445 kts | 350° |
| 2026-05-07 01:31 | 30.74169 | -81.40833 | 34873 ft | 444 kts | 350° |
| 2026-05-07 01:31 | 30.77267 | -81.40998 | 35012 ft | 445 kts | 350° |
| 2026-05-07 01:32 | 30.83393 | -81.41328 | 35056 ft | 443 kts | 350° |
| 2026-05-07 01:32 | 30.89549 | -81.41658 | 35039 ft | 443 kts | 350° |
| 2026-05-07 01:33 | 30.95714 | -81.41982 | 35039 ft | 443 kts | 350° |
| 2026-05-07 01:33 | 31.01880 | -81.42309 | 35044 ft | 444 kts | 350° |
| 2026-05-07 01:34 | 31.08048 | -81.42638 | 35047 ft | 444 kts | 350° |
| 2026-05-07 01:34 | 31.14224 | -81.42972 | 35051 ft | 444 kts | 350° |
| 2026-05-07 01:35 | 31.20409 | -81.43302 | 35054 ft | 445 kts | 350° |
| 2026-05-07 01:35 | 31.26594 | -81.43622 | 35062 ft | 446 kts | 351° |
| 2026-05-07 01:36 | 31.32821 | -81.43747 | 35063 ft | 448 kts | 352° |
| 2026-05-07 01:36 | 31.39062 | -81.43750 | 35052 ft | 449 kts | 352° |
| 2026-05-07 01:37 | 31.45305 | -81.43747 | 35055 ft | 452 kts | 356° |
| 2026-05-07 01:37 | 31.51556 | -81.42207 | 35046 ft | 468 kts | 12° |
| 2026-05-07 01:38 | 31.57717 | -81.39676 | 35039 ft | 469 kts | 12° |
| 2026-05-07 01:38 | 31.63885 | -81.37146 | 35037 ft | 470 kts | 12° |
| 2026-05-07 01:39 | 31.70010 | -81.34614 | 35040 ft | 470 kts | 12° |
| 2026-05-07 01:39 | 31.76173 | -81.32064 | 35033 ft | 470 kts | 12° |
| 2026-05-07 01:40 | 31.82349 | -81.29517 | 35028 ft | 470 kts | 12° |
| 2026-05-07 01:40 | 31.88527 | -81.26967 | 35029 ft | 470 kts | 12° |
| 2026-05-07 01:41 | 31.94708 | -81.24471 | 35027 ft | 466 kts | 7° |
| 2026-05-07 01:41 | 32.00989 | -81.23506 | 35026 ft | 450 kts | 354° |
| 2026-05-07 01:42 | 32.06200 | -81.23260 | 35064 ft | 451 kts | 354° |
| 2026-05-07 01:42 | 32.12473 | -81.22952 | 35062 ft | 451 kts | 354° |
| 2026-05-07 01:43 | 32.18739 | -81.22634 | 35065 ft | 451 kts | 354° |
| 2026-05-07 01:43 | 32.25024 | -81.22317 | 35061 ft | 451 kts | 354° |
| 2026-05-07 01:44 | 32.31295 | -81.22008 | 35051 ft | 451 kts | 354° |
| 2026-05-07 01:44 | 32.37572 | -81.21695 | 35042 ft | 451 kts | 354° |
| 2026-05-07 01:45 | 32.43847 | -81.21382 | 35033 ft | 451 kts | 354° |
| 2026-05-07 01:45 | 32.50134 | -81.20767 | 35019 ft | 461 kts | 2° |
| 2026-05-07 01:46 | 32.56436 | -81.19312 | 35023 ft | 461 kts | 2° |
| 2026-05-07 01:46 | 32.62739 | -81.17857 | 35024 ft | 461 kts | 2° |
| 2026-05-07 01:47 | 32.69038 | -81.16407 | 35019 ft | 461 kts | 2° |
| 2026-05-07 01:47 | 32.75343 | -81.14950 | 35012 ft | 461 kts | 1° |
| 2026-05-07 01:48 | 32.81651 | -81.13496 | 35009 ft | 462 kts | 1° |
| 2026-05-07 01:48 | 32.87958 | -81.12030 | 34995 ft | 462 kts | 1° |
| 2026-05-07 01:49 | 32.94266 | -81.10563 | 34999 ft | 461 kts | 1° |
| 2026-05-07 01:49 | 33.00523 | -81.09118 | 35000 ft | 461 kts | 1° |
| 2026-05-07 01:50 | 33.06823 | -81.07662 | 35005 ft | 461 kts | 1° |
| 2026-05-07 01:50 | 33.13111 | -81.06201 | 35009 ft | 460 kts | 1° |
| 2026-05-07 01:51 | 33.19400 | -81.04727 | 35008 ft | 460 kts | 1° |
| 2026-05-07 01:51 | 33.25683 | -81.03250 | 35021 ft | 460 kts | 0° |
| 2026-05-07 01:52 | 33.31963 | -81.01788 | 35021 ft | 460 kts | 0° |
| 2026-05-07 01:52 | 33.38242 | -81.00321 | 35026 ft | 460 kts | 0° |
| 2026-05-07 01:53 | 33.44521 | -80.98856 | 35028 ft | 459 kts | 360° |
| 2026-05-07 01:53 | 33.50798 | -80.97383 | 35028 ft | 459 kts | 360° |
| 2026-05-07 01:54 | 33.57065 | -80.95904 | 34992 ft | 459 kts | 359° |
| 2026-05-07 01:54 | 33.63319 | -80.94430 | 34995 ft | 458 kts | 359° |
| 2026-05-07 01:55 | 33.69574 | -80.92958 | 34992 ft | 458 kts | 359° |
| 2026-05-07 01:55 | 33.75822 | -80.91476 | 34986 ft | 457 kts | 359° |
| 2026-05-07 01:56 | 33.82067 | -80.89995 | 34985 ft | 457 kts | 359° |
| 2026-05-07 01:56 | 33.88262 | -80.88593 | 34984 ft | 454 kts | 358° |
| 2026-05-07 01:57 | 33.94480 | -80.87478 | 34986 ft | 451 kts | 356° |
| 2026-05-07 01:57 | 34.00691 | -80.86457 | 34984 ft | 451 kts | 356° |
| 2026-05-07 01:58 | 34.06909 | -80.85378 | 34995 ft | 452 kts | 357° |
| 2026-05-07 01:58 | 34.13144 | -80.84240 | 34981 ft | 453 kts | 358° |
| 2026-05-07 01:59 | 34.19381 | -80.83099 | 34985 ft | 454 kts | 358° |
| 2026-05-07 01:59 | 34.25635 | -80.81966 | 34987 ft | 455 kts | 358° |
| 2026-05-07 02:00 | 34.31895 | -80.80829 | 34989 ft | 456 kts | 358° |
| 2026-05-07 02:00 | 34.38175 | -80.79697 | 34988 ft | 456 kts | 358° |
| 2026-05-07 02:01 | 34.44447 | -80.78562 | 34983 ft | 456 kts | 358° |
| 2026-05-07 02:01 | 34.50735 | -80.77415 | 34996 ft | 457 kts | 358° |
| 2026-05-07 02:02 | 34.57018 | -80.76264 | 35007 ft | 457 kts | 358° |
| 2026-05-07 02:02 | 34.63273 | -80.75122 | 35013 ft | 457 kts | 358° |
| 2026-05-07 02:03 | 34.69565 | -80.73975 | 35010 ft | 457 kts | 358° |
| 2026-05-07 02:03 | 34.75856 | -80.72823 | 35012 ft | 457 kts | 358° |
| 2026-05-07 02:04 | 34.82144 | -80.71662 | 35013 ft | 458 kts | 358° |
| 2026-05-07 02:04 | 34.88450 | -80.70500 | 35010 ft | 458 kts | 357° |
| 2026-05-07 02:05 | 34.94746 | -80.69352 | 35002 ft | 458 kts | 357° |
| 2026-05-07 02:05 | 35.01066 | -80.68189 | 35003 ft | 459 kts | 357° |
| 2026-05-07 02:06 | 35.07396 | -80.67017 | 35001 ft | 460 kts | 357° |
| 2026-05-07 02:06 | 35.13733 | -80.65841 | 35000 ft | 461 kts | 357° |
| 2026-05-07 02:07 | 35.20088 | -80.64664 | 34995 ft | 462 kts | 357° |
| 2026-05-07 02:07 | 35.29631 | -80.62900 | 35049 ft | 463 kts | 356° |
| 2026-05-07 02:08 | 35.36006 | -80.61716 | 35058 ft | 464 kts | 356° |
| 2026-05-07 02:08 | 35.42398 | -80.60523 | 35064 ft | 465 kts | 356° |
| 2026-05-07 02:09 | 35.48751 | -80.59333 | 35052 ft | 465 kts | 356° |
| 2026-05-07 02:09 | 35.55156 | -80.58135 | 35027 ft | 465 kts | 355° |
| 2026-05-07 02:10 | 35.61561 | -80.56938 | 35034 ft | 466 kts | 355° |
| 2026-05-07 02:10 | 35.67968 | -80.55739 | 35040 ft | 466 kts | 355° |
| 2026-05-07 02:11 | 35.74372 | -80.54532 | 35037 ft | 466 kts | 355° |
| 2026-05-07 02:11 | 35.80774 | -80.53333 | 35025 ft | 465 kts | 355° |
| 2026-05-07 02:12 | 35.87172 | -80.52132 | 35007 ft | 465 kts | 354° |
| 2026-05-07 02:12 | 35.93563 | -80.50923 | 35002 ft | 464 kts | 354° |
| 2026-05-07 02:13 | 35.99940 | -80.49713 | 34995 ft | 464 kts | 354° |
| 2026-05-07 02:13 | 36.06316 | -80.48506 | 34983 ft | 462 kts | 354° |
| 2026-05-07 02:14 | 36.12666 | -80.47302 | 34978 ft | 462 kts | 354° |
| 2026-05-07 02:14 | 36.19013 | -80.46095 | 34986 ft | 461 kts | 354° |
| 2026-05-07 02:15 | 36.25346 | -80.44893 | 34992 ft | 460 kts | 354° |
| 2026-05-07 02:15 | 36.31663 | -80.43701 | 35000 ft | 459 kts | 354° |
| 2026-05-07 02:16 | 36.37937 | -80.42503 | 35009 ft | 459 kts | 354° |
| 2026-05-07 02:16 | 36.44248 | -80.41289 | 35016 ft | 459 kts | 354° |
| 2026-05-07 02:17 | 36.50565 | -80.40003 | 35015 ft | 460 kts | 354° |
| 2026-05-07 02:17 | 36.56883 | -80.38689 | 35007 ft | 460 kts | 354° |
| 2026-05-07 02:18 | 36.63209 | -80.37382 | 34999 ft | 460 kts | 354° |
| 2026-05-07 02:18 | 36.69519 | -80.36099 | 34987 ft | 460 kts | 354° |
| 2026-05-07 02:19 | 36.75832 | -80.34849 | 34983 ft | 458 kts | 352° |
| 2026-05-07 02:19 | 36.82120 | -80.33897 | 34969 ft | 453 kts | 350° |
| 2026-05-07 02:20 | 36.88388 | -80.33114 | 34972 ft | 453 kts | 350° |
| 2026-05-07 02:20 | 36.94676 | -80.32285 | 34993 ft | 455 kts | 351° |
| 2026-05-07 02:21 | 37.00977 | -80.31387 | 35018 ft | 456 kts | 351° |
| 2026-05-07 02:21 | 37.07295 | -80.30475 | 35029 ft | 457 kts | 351° |
| 2026-05-07 02:22 | 37.13615 | -80.29558 | 35056 ft | 458 kts | 350° |
| 2026-05-07 02:22 | 37.19941 | -80.28644 | 35054 ft | 458 kts | 350° |
| 2026-05-07 02:23 | 37.26280 | -80.27739 | 35058 ft | 459 kts | 350° |
| 2026-05-07 02:23 | 37.32631 | -80.26833 | 35036 ft | 459 kts | 350° |
| 2026-05-07 02:24 | 37.38993 | -80.25918 | 35010 ft | 460 kts | 350° |
| 2026-05-07 02:24 | 37.45358 | -80.25007 | 34966 ft | 461 kts | 350° |
| 2026-05-07 02:25 | 37.51739 | -80.24089 | 34962 ft | 462 kts | 350° |
| 2026-05-07 02:25 | 37.58137 | -80.23158 | 34970 ft | 463 kts | 350° |
| 2026-05-07 02:26 | 37.64537 | -80.22233 | 34983 ft | 463 kts | 350° |
| 2026-05-07 02:26 | 37.70909 | -80.21302 | 34994 ft | 465 kts | 350° |
| 2026-05-07 02:27 | 37.77331 | -80.20342 | 35001 ft | 466 kts | 350° |
| 2026-05-07 02:27 | 37.83779 | -80.19369 | 35004 ft | 467 kts | 351° |
| 2026-05-07 02:28 | 37.90228 | -80.18394 | 35006 ft | 467 kts | 350° |
| 2026-05-07 02:28 | 37.96671 | -80.17424 | 35002 ft | 468 kts | 350° |
| 2026-05-07 02:29 | 38.03162 | -80.16453 | 34996 ft | 468 kts | 350° |
| 2026-05-07 02:29 | 38.09623 | -80.15490 | 34996 ft | 468 kts | 350° |
| 2026-05-07 02:30 | 38.16096 | -80.14523 | 34990 ft | 468 kts | 350° |
| 2026-05-07 02:30 | 38.22564 | -80.13543 | 34990 ft | 468 kts | 350° |
| 2026-05-07 02:31 | 38.29023 | -80.12565 | 34994 ft | 467 kts | 350° |
| 2026-05-07 02:31 | 38.34389 | -80.11749 | 35001 ft | 467 kts | 350° |
| 2026-05-07 02:32 | 38.40814 | -80.10980 | 35000 ft | 458 kts | 346° |
| 2026-05-07 02:32 | 38.47138 | -80.10688 | 35006 ft | 453 kts | 344° |
| 2026-05-07 02:33 | 38.53440 | -80.10500 | 35003 ft | 453 kts | 345° |
| 2026-05-07 02:33 | 38.59763 | -80.10213 | 35018 ft | 456 kts | 345° |
| 2026-05-07 02:34 | 38.66102 | -80.09840 | 35015 ft | 457 kts | 345° |
| 2026-05-07 02:34 | 38.72463 | -80.09462 | 35022 ft | 457 kts | 345° |
| 2026-05-07 02:35 | 38.78816 | -80.09100 | 35031 ft | 458 kts | 345° |
| 2026-05-07 02:35 | 38.85188 | -80.08758 | 35040 ft | 458 kts | 345° |
| 2026-05-07 02:36 | 38.88390 | -80.08513 | 35037 ft | 469 kts | 351° |
| 2026-05-07 02:36 | 38.91666 | -80.07620 | 35037 ft | 495 kts | 2° |
| 2026-05-07 02:36 | 38.94917 | -80.05840 | 35031 ft | 523 kts | 16° |
| 2026-05-07 02:36 | 38.98019 | -80.03246 | 35025 ft | 535 kts | 21° |
| 2026-05-07 02:37 | 39.04123 | -79.97841 | 35004 ft | 537 kts | 21° |
| 2026-05-07 02:37 | 39.10295 | -79.92407 | 34999 ft | 538 kts | 21° |
| 2026-05-07 02:38 | 39.16492 | -79.86969 | 34992 ft | 539 kts | 20° |
| 2026-05-07 02:38 | 39.22701 | -79.81509 | 34982 ft | 541 kts | 20° |
| 2026-05-07 02:39 | 39.28912 | -79.76028 | 34988 ft | 542 kts | 20° |
| 2026-05-07 02:39 | 39.35135 | -79.70516 | 34994 ft | 543 kts | 20° |
| 2026-05-07 02:40 | 39.41353 | -79.64978 | 35004 ft | 544 kts | 20° |
| 2026-05-07 02:40 | 39.47590 | -79.59425 | 35010 ft | 544 kts | 20° |
| 2026-05-07 02:41 | 39.53824 | -79.53881 | 35000 ft | 544 kts | 20° |
| 2026-05-07 02:41 | 39.60063 | -79.48319 | 35007 ft | 544 kts | 20° |
| 2026-05-07 02:42 | 39.66295 | -79.42729 | 35003 ft | 545 kts | 20° |
| 2026-05-07 02:42 | 39.72523 | -79.37131 | 35016 ft | 545 kts | 20° |
| 2026-05-07 02:43 | 39.78757 | -79.31518 | 35019 ft | 545 kts | 20° |
| 2026-05-07 02:43 | 39.84992 | -79.25902 | 35022 ft | 545 kts | 20° |
| 2026-05-07 02:44 | 39.91214 | -79.20284 | 35019 ft | 545 kts | 20° |
| 2026-05-07 02:44 | 39.97440 | -79.14648 | 35006 ft | 545 kts | 20° |
| 2026-05-07 02:45 | 40.03659 | -79.09008 | 35014 ft | 544 kts | 20° |
| 2026-05-07 02:45 | 40.09831 | -79.03397 | 34994 ft | 544 kts | 21° |
| 2026-05-07 02:46 | 40.16037 | -78.97737 | 34993 ft | 544 kts | 21° |
| 2026-05-07 02:46 | 40.22237 | -78.92066 | 34996 ft | 544 kts | 21° |
| 2026-05-07 02:47 | 40.28434 | -78.86391 | 34997 ft | 544 kts | 21° |
| 2026-05-07 02:47 | 40.34724 | -78.81153 | 34998 ft | 529 kts | 14° |
| 2026-05-07 02:48 | 40.41135 | -78.76436 | 34991 ft | 528 kts | 14° |
| 2026-05-07 02:48 | 40.47541 | -78.71709 | 34997 ft | 528 kts | 14° |
| 2026-05-07 02:49 | 40.53935 | -78.66964 | 35001 ft | 528 kts | 14° |
| 2026-05-07 02:49 | 40.60324 | -78.62206 | 35007 ft | 527 kts | 14° |
| 2026-05-07 02:50 | 40.66703 | -78.57447 | 35019 ft | 527 kts | 14° |
| 2026-05-07 02:50 | 40.73085 | -78.52682 | 35023 ft | 527 kts | 14° |
| 2026-05-07 02:51 | 40.79458 | -78.47923 | 35024 ft | 526 kts | 14° |
| 2026-05-07 02:51 | 40.85829 | -78.43147 | 35015 ft | 526 kts | 14° |
| 2026-05-07 02:52 | 40.92192 | -78.38365 | 35023 ft | 526 kts | 14° |
| 2026-05-07 02:52 | 40.98515 | -78.33598 | 35012 ft | 526 kts | 14° |
| 2026-05-07 02:53 | 41.04906 | -78.28764 | 35018 ft | 526 kts | 14° |
| 2026-05-07 02:53 | 41.11230 | -78.23979 | 35020 ft | 526 kts | 14° |
| 2026-05-07 02:54 | 41.17584 | -78.19172 | 35022 ft | 526 kts | 14° |
| 2026-05-07 02:54 | 41.23954 | -78.14330 | 35027 ft | 527 kts | 15° |
| 2026-05-07 02:55 | 41.30310 | -78.09475 | 35021 ft | 527 kts | 14° |
| 2026-05-07 02:55 | 41.36677 | -78.04626 | 34821 ft | 527 kts | 14° |
| 2026-05-07 02:56 | 41.39845 | -78.02207 | 34594 ft | 526 kts | 14° |
| 2026-05-07 02:56 | 41.43013 | -77.99778 | 34373 ft | 524 kts | 14° |
| 2026-05-07 02:56 | 41.46170 | -77.97351 | 34144 ft | 523 kts | 14° |
| 2026-05-07 02:56 | 41.49316 | -77.94926 | 33910 ft | 522 kts | 14° |
| 2026-05-07 02:57 | 41.52457 | -77.92506 | 33647 ft | 521 kts | 14° |
| 2026-05-07 02:57 | 41.55594 | -77.90093 | 33382 ft | 519 kts | 14° |
| 2026-05-07 02:57 | 41.58723 | -77.87682 | 33135 ft | 518 kts | 15° |
| 2026-05-07 02:57 | 41.61837 | -77.85274 | 32886 ft | 517 kts | 15° |
| 2026-05-07 02:58 | 41.64941 | -77.82875 | 32631 ft | 515 kts | 15° |
| 2026-05-07 02:58 | 41.68041 | -77.80477 | 32376 ft | 513 kts | 15° |
| 2026-05-07 02:58 | 41.71125 | -77.78093 | 32137 ft | 512 kts | 15° |
| 2026-05-07 02:58 | 41.74201 | -77.75711 | 31893 ft | 510 kts | 15° |
| 2026-05-07 02:59 | 41.77269 | -77.73337 | 31654 ft | 509 kts | 15° |
| 2026-05-07 02:59 | 41.80330 | -77.70969 | 31414 ft | 507 kts | 15° |
| 2026-05-07 02:59 | 41.83381 | -77.68605 | 31177 ft | 506 kts | 15° |
| 2026-05-07 02:59 | 41.86416 | -77.66246 | 31034 ft | 504 kts | 16° |
| 2026-05-07 03:00 | 41.89410 | -77.63916 | 30922 ft | 504 kts | 16° |
| 2026-05-07 03:00 | 41.92440 | -77.61555 | 30806 ft | 503 kts | 16° |
| 2026-05-07 03:00 | 41.95464 | -77.59196 | 30688 ft | 502 kts | 16° |
| 2026-05-07 03:00 | 41.98480 | -77.56841 | 30567 ft | 501 kts | 16° |
| 2026-05-07 03:01 | 42.01534 | -77.54454 | 30452 ft | 500 kts | 16° |
| 2026-05-07 03:01 | 42.04494 | -77.52137 | 30333 ft | 499 kts | 16° |
| 2026-05-07 03:01 | 42.07490 | -77.49786 | 30220 ft | 499 kts | 17° |
| 2026-05-07 03:01 | 42.10490 | -77.47428 | 30042 ft | 498 kts | 17° |
| 2026-05-07 03:02 | 42.13473 | -77.45077 | 29851 ft | 496 kts | 17° |
| 2026-05-07 03:02 | 42.16442 | -77.42734 | 29623 ft | 494 kts | 17° |
| 2026-05-07 03:02 | 42.19403 | -77.40397 | 29405 ft | 492 kts | 17° |
| 2026-05-07 03:02 | 42.22350 | -77.38071 | 29188 ft | 490 kts | 17° |
| 2026-05-07 03:03 | 42.25290 | -77.35751 | 28967 ft | 488 kts | 17° |
| 2026-05-07 03:03 | 42.28221 | -77.33440 | 28765 ft | 486 kts | 17° |
| 2026-05-07 03:03 | 42.31131 | -77.31144 | 28559 ft | 484 kts | 17° |
| 2026-05-07 03:03 | 42.34031 | -77.28850 | 28363 ft | 482 kts | 18° |
| 2026-05-07 03:04 | 42.36919 | -77.26557 | 28043 ft | 481 kts | 18° |
| 2026-05-07 03:04 | 42.39835 | -77.24253 | 27086 ft | 490 kts | 19° |
| 2026-05-07 03:04 | 42.42781 | -77.21928 | 26473 ft | 490 kts | 19° |
| 2026-05-07 03:04 | 42.45707 | -77.19606 | 25941 ft | 484 kts | 20° |
| 2026-05-07 03:05 | 42.48593 | -77.17299 | 25189 ft | 477 kts | 20° |
| 2026-05-07 03:05 | 42.51428 | -77.15021 | 24253 ft | 470 kts | 21° |
| 2026-05-07 03:05 | 42.54209 | -77.12784 | 23395 ft | 461 kts | 22° |
| 2026-05-07 03:05 | 42.56947 | -77.10588 | 22418 ft | 453 kts | 22° |
| 2026-05-07 03:06 | 42.59639 | -77.08435 | 21499 ft | 445 kts | 22° |
| 2026-05-07 03:06 | 42.62276 | -77.06328 | 20667 ft | 435 kts | 23° |
| 2026-05-07 03:06 | 42.64859 | -77.04262 | 20257 ft | 428 kts | 23° |
| 2026-05-07 03:06 | 42.67429 | -77.02208 | 19736 ft | 428 kts | 24° |
| 2026-05-07 03:07 | 42.69979 | -77.00170 | 19369 ft | 423 kts | 24° |
| 2026-05-07 03:07 | 42.72488 | -76.98161 | 18913 ft | 421 kts | 24° |
| 2026-05-07 03:07 | 42.74987 | -76.96149 | 18527 ft | 416 kts | 24° |
| 2026-05-07 03:07 | 42.77468 | -76.94149 | 18074 ft | 413 kts | 24° |
| 2026-05-07 03:08 | 42.79935 | -76.92161 | 17595 ft | 410 kts | 25° |
| 2026-05-07 03:08 | 42.82379 | -76.90195 | 17121 ft | 406 kts | 25° |
| 2026-05-07 03:08 | 42.84802 | -76.88247 | 16660 ft | 403 kts | 25° |
| 2026-05-07 03:08 | 42.87199 | -76.86313 | 16132 ft | 396 kts | 25° |
| 2026-05-07 03:09 | 42.89549 | -76.84411 | 15286 ft | 388 kts | 25° |
| 2026-05-07 03:09 | 42.91812 | -76.82569 | 14867 ft | 371 kts | 25° |
| 2026-05-07 03:09 | 42.94018 | -76.80761 | 14421 ft | 371 kts | 28° |
| 2026-05-07 03:09 | 42.96036 | -76.78543 | 13987 ft | 375 kts | 43° |
| 2026-05-07 03:10 | 42.97658 | -76.75769 | 13549 ft | 371 kts | 57° |
| 2026-05-07 03:10 | 42.98808 | -76.72674 | 13139 ft | 360 kts | 65° |
| 2026-05-07 03:10 | 43.00283 | -76.68213 | 12569 ft | 346 kts | 65° |
| 2026-05-07 03:10 | 43.02221 | -76.62391 | 11810 ft | 328 kts | 64° |
| 2026-05-07 03:11 | 43.04088 | -76.56788 | 11090 ft | 322 kts | 64° |
| 2026-05-07 03:11 | 43.05935 | -76.51232 | 10377 ft | 322 kts | 64° |
| 2026-05-07 03:11 | 43.07753 | -76.45737 | 10009 ft | 311 kts | 63° |
| 2026-05-07 03:11 | 43.09598 | -76.40157 | 8981 ft | 330 kts | 64° |
| 2026-05-07 03:12 | 43.10787 | -76.36546 | 8756 ft | 315 kts | 64° |
| 2026-05-07 03:12 | 43.11670 | -76.33853 | 8153 ft | 307 kts | 64° |
| 2026-05-07 03:12 | 43.12533 | -76.31213 | 7500 ft | 301 kts | 64° |
| 2026-05-07 03:12 | 43.13376 | -76.28631 | 7133 ft | 297 kts | 64° |
| 2026-05-07 03:13 | 43.14222 | -76.26044 | 6701 ft | 297 kts | 65° |
| 2026-05-07 03:13 | 43.15057 | -76.23494 | 6290 ft | 290 kts | 65° |
| 2026-05-07 03:13 | 43.15888 | -76.20955 | 5905 ft | 291 kts | 66° |
| 2026-05-07 03:13 | 43.16503 | -76.18341 | 5470 ft | 288 kts | 73° |
| 2026-05-07 03:14 | 43.17047 | -76.15721 | 4996 ft | 284 kts | 73° |
| 2026-05-07 03:14 | 43.17585 | -76.13130 | 4597 ft | 281 kts | 72° |
| 2026-05-07 03:14 | 43.18581 | -76.08326 | 4402 ft | 251 kts | 72° |
| 2026-05-07 03:15 | 43.19059 | -76.06025 | 4312 ft | 250 kts | 72° |
| 2026-05-07 03:15 | 43.19534 | -76.03742 | 4207 ft | 249 kts | 72° |
| 2026-05-07 03:15 | 43.19872 | -76.01416 | 3977 ft | 251 kts | 90° |
| 2026-05-07 03:15 | 43.19548 | -75.99093 | 3664 ft | 249 kts | 115° |
| 2026-05-07 03:16 | 43.18611 | -75.97181 | 3357 ft | 243 kts | 139° |
| 2026-05-07 03:16 | 43.17251 | -75.95923 | 3099 ft | 230 kts | 160° |
| 2026-05-07 03:16 | 43.15736 | -75.95444 | 2836 ft | 221 kts | 181° |
| 2026-05-07 03:16 | 43.14244 | -75.95688 | 2401 ft | 211 kts | 202° |
| 2026-05-07 03:17 | 43.13009 | -75.96532 | 2218 ft | 186 kts | 219° |
| 2026-05-07 03:17 | 43.12130 | -75.97671 | 2036 ft | 164 kts | 235° |
| 2026-05-07 03:17 | 43.11554 | -75.98965 | 1865 ft | 156 kts | 249° |
| 2026-05-07 03:17 | 43.11244 | -76.00363 | 1690 ft | 152 kts | 262° |
| 2026-05-07 03:18 | 43.11160 | -76.01793 | 1503 ft | 146 kts | 268° |
| 2026-05-07 03:18 | 43.11118 | -76.03164 | 1299 ft | 143 kts | 268° |
| 2026-05-07 03:18 | 43.11078 | -76.04506 | 1103 ft | 138 kts | 269° |
| 2026-05-07 03:18 | 43.11037 | -76.05805 | 932 ft | 137 kts | 270° |
| 2026-05-07 03:19 | 43.10994 | -76.07109 | 769 ft | 138 kts | 269° |
| 2026-05-07 03:19 | 43.10953 | -76.08438 | 572 ft | 141 kts | 270° |
| 2026-05-07 03:19 | 43.10920 | -76.09748 | 421 ft | 130 kts | 270° |
| 2026-05-07 03:19 | 43.10893 | -76.10660 | 427 ft | 54 kts | 267° |
| 2026-05-07 03:20 | 43.10887 | -76.10816 | 428 ft | 0 kts | 266° |
| 2026-05-07 03:20 | 43.10887 | -76.10830 | 428 ft | 5 kts | 266° |
| 2026-05-07 03:20 | 43.10877 | -76.10956 | 428 ft | 23 kts | 264° |
| 2026-05-07 03:20 | 43.10868 | -76.11185 | 422 ft | 23 kts | 268° |
| 2026-05-07 03:21 | 43.10931 | -76.11347 | 421 ft | 12 kts | 330° |
| 2026-05-07 03:21 | 43.10982 | -76.11329 | 415 ft | 13 kts | 45° |
| 2026-05-07 03:21 | 43.11066 | -76.11300 | 420 ft | 12 kts | 4° |
| 2026-05-07 03:21 | 43.11138 | -76.11263 | 417 ft | 10 kts | 57° |
| 2026-05-07 03:22 | 43.11145 | -76.11181 | 415 ft | 7 kts | 84° |
| 2026-05-07 03:22 | 43.11174 | -76.11122 | 412 ft | 11 kts | 51° |
| 2026-05-07 03:22 | 43.11190 | -76.11026 | 414 ft | 1 kts | 71° |
| 2026-05-07 03:23 | 43.11225 | -76.11006 | 418 ft | 7 kts | 6° |
| 2026-05-07 03:23 | 43.11248 | -76.11006 | 422 ft | 0 kts | 358° |